sensor_id;sensor_type;location;lat;lon;timestamp;P1;durP1;ratioP1;P2;durP2;ratioP2
31734;SDS011;18313;48.518;9.124;2024-03-06T00:00:34;10.95;;;5.13;;
31734;SDS011;18313;48.518;9.124;2024-03-06T00:03:02;8.00;;;5.07;;
31734;SDS011;18313;48.518;9.124;2024-03-06T00:05:29;8.93;;;5.45;;
31734;SDS011;18313;48.518;9.124;2024-03-06T00:07:57;8.10;;;5.38;;
31734;SDS011;18313;48.518;9.124;2024-03-06T00:10:24;8.57;;;5.28;;
31734;SDS011;18313;48.518;9.124;2024-03-06T00:12:51;8.15;;;4.93;;
31734;SDS011;18313;48.518;9.124;2024-03-06T00:15:18;8.35;;;4.85;;
31734;SDS011;18313;48.518;9.124;2024-03-06T00:17:46;8.98;;;5.05;;
31734;SDS011;18313;48.518;9.124;2024-03-06T00:20:13;9.43;;;5.18;;
31734;SDS011;18313;48.518;9.124;2024-03-06T00:22:41;8.18;;;5.25;;
31734;SDS011;18313;48.518;9.124;2024-03-06T00:25:08;7.53;;;5.10;;
31734;SDS011;18313;48.518;9.124;2024-03-06T00:27:35;6.70;;;4.20;;
31734;SDS011;18313;48.518;9.124;2024-03-06T00:30:03;6.82;;;4.47;;
31734;SDS011;18313;48.518;9.124;2024-03-06T00:32:31;11.48;;;5.32;;
31734;SDS011;18313;48.518;9.124;2024-03-06T00:34:58;10.68;;;5.22;;
31734;SDS011;18313;48.518;9.124;2024-03-06T00:37:26;7.38;;;4.43;;
31734;SDS011;18313;48.518;9.124;2024-03-06T00:39:53;7.05;;;4.80;;
31734;SDS011;18313;48.518;9.124;2024-03-06T00:42:21;9.80;;;5.10;;
31734;SDS011;18313;48.518;9.124;2024-03-06T00:44:48;11.02;;;4.85;;
31734;SDS011;18313;48.518;9.124;2024-03-06T00:47:15;11.02;;;5.07;;
31734;SDS011;18313;48.518;9.124;2024-03-06T00:49:43;9.23;;;4.90;;
31734;SDS011;18313;48.518;9.124;2024-03-06T00:52:10;7.47;;;4.97;;
31734;SDS011;18313;48.518;9.124;2024-03-06T00:54:37;7.40;;;4.85;;
31734;SDS011;18313;48.518;9.124;2024-03-06T00:57:04;9.60;;;5.18;;
31734;SDS011;18313;48.518;9.124;2024-03-06T00:59:32;8.38;;;4.78;;
31734;SDS011;18313;48.518;9.124;2024-03-06T01:01:59;7.28;;;4.68;;
31734;SDS011;18313;48.518;9.124;2024-03-06T01:04:27;8.55;;;4.90;;
31734;SDS011;18313;48.518;9.124;2024-03-06T01:06:54;7.75;;;4.60;;
31734;SDS011;18313;48.518;9.124;2024-03-06T01:09:22;6.05;;;4.43;;
31734;SDS011;18313;48.518;9.124;2024-03-06T01:11:49;8.82;;;5.00;;
31734;SDS011;18313;48.518;9.124;2024-03-06T01:14:16;7.18;;;4.55;;
31734;SDS011;18313;48.518;9.124;2024-03-06T01:16:44;6.55;;;3.90;;
31734;SDS011;18313;48.518;9.124;2024-03-06T01:19:11;6.18;;;4.18;;
31734;SDS011;18313;48.518;9.124;2024-03-06T01:21:38;7.25;;;4.68;;
31734;SDS011;18313;48.518;9.124;2024-03-06T01:24:05;7.97;;;4.50;;
31734;SDS011;18313;48.518;9.124;2024-03-06T01:26:33;7.80;;;4.82;;
31734;SDS011;18313;48.518;9.124;2024-03-06T01:29:00;8.48;;;4.97;;
31734;SDS011;18313;48.518;9.124;2024-03-06T01:31:28;8.32;;;5.30;;
31734;SDS011;18313;48.518;9.124;2024-03-06T01:33:56;9.13;;;5.18;;
31734;SDS011;18313;48.518;9.124;2024-03-06T01:36:23;8.90;;;5.60;;
31734;SDS011;18313;48.518;9.124;2024-03-06T01:38:51;9.10;;;5.63;;
31734;SDS011;18313;48.518;9.124;2024-03-06T01:41:18;8.98;;;5.60;;
31734;SDS011;18313;48.518;9.124;2024-03-06T01:43:45;9.43;;;6.05;;
31734;SDS011;18313;48.518;9.124;2024-03-06T01:46:13;8.55;;;4.82;;
31734;SDS011;18313;48.518;9.124;2024-03-06T01:48:40;8.02;;;5.07;;
31734;SDS011;18313;48.518;9.124;2024-03-06T01:51:09;7.20;;;4.95;;
31734;SDS011;18313;48.518;9.124;2024-03-06T01:53:37;7.85;;;5.00;;
31734;SDS011;18313;48.518;9.124;2024-03-06T01:56:04;6.93;;;4.50;;
31734;SDS011;18313;48.518;9.124;2024-03-06T01:58:32;7.28;;;4.80;;
31734;SDS011;18313;48.518;9.124;2024-03-06T02:01:00;9.30;;;4.80;;
31734;SDS011;18313;48.518;9.124;2024-03-06T02:03:29;8.93;;;4.68;;
31734;SDS011;18313;48.518;9.124;2024-03-06T02:05:58;8.02;;;4.82;;
31734;SDS011;18313;48.518;9.124;2024-03-06T02:08:28;7.68;;;5.20;;
31734;SDS011;18313;48.518;9.124;2024-03-06T02:10:56;6.65;;;4.80;;
31734;SDS011;18313;48.518;9.124;2024-03-06T02:13:23;8.10;;;5.30;;
31734;SDS011;18313;48.518;9.124;2024-03-06T02:15:51;6.82;;;4.85;;
31734;SDS011;18313;48.518;9.124;2024-03-06T02:18:18;8.73;;;5.15;;
31734;SDS011;18313;48.518;9.124;2024-03-06T02:20:45;7.35;;;5.10;;
31734;SDS011;18313;48.518;9.124;2024-03-06T02:23:13;9.00;;;5.40;;
31734;SDS011;18313;48.518;9.124;2024-03-06T02:25:41;10.18;;;5.70;;
31734;SDS011;18313;48.518;9.124;2024-03-06T02:28:08;10.27;;;5.35;;
31734;SDS011;18313;48.518;9.124;2024-03-06T02:30:35;7.57;;;5.20;;
31734;SDS011;18313;48.518;9.124;2024-03-06T02:33:04;7.60;;;5.13;;
31734;SDS011;18313;48.518;9.124;2024-03-06T02:35:36;8.60;;;5.88;;
31734;SDS011;18313;48.518;9.124;2024-03-06T02:38:05;8.27;;;5.40;;
31734;SDS011;18313;48.518;9.124;2024-03-06T02:40:32;9.48;;;6.32;;
31734;SDS011;18313;48.518;9.124;2024-03-06T02:43:00;10.30;;;5.75;;
31734;SDS011;18313;48.518;9.124;2024-03-06T02:45:27;9.10;;;5.43;;
31734;SDS011;18313;48.518;9.124;2024-03-06T02:47:55;11.38;;;5.68;;
31734;SDS011;18313;48.518;9.124;2024-03-06T02:50:22;8.65;;;5.78;;
31734;SDS011;18313;48.518;9.124;2024-03-06T02:52:50;11.82;;;5.75;;
31734;SDS011;18313;48.518;9.124;2024-03-06T02:55:19;10.35;;;5.57;;
31734;SDS011;18313;48.518;9.124;2024-03-06T02:57:48;7.85;;;5.45;;
31734;SDS011;18313;48.518;9.124;2024-03-06T03:00:15;8.13;;;5.20;;
31734;SDS011;18313;48.518;9.124;2024-03-06T03:02:43;8.48;;;5.18;;
31734;SDS011;18313;48.518;9.124;2024-03-06T03:05:10;8.10;;;5.70;;
31734;SDS011;18313;48.518;9.124;2024-03-06T03:07:37;7.60;;;5.45;;
31734;SDS011;18313;48.518;9.124;2024-03-06T03:10:05;8.85;;;5.57;;
31734;SDS011;18313;48.518;9.124;2024-03-06T03:12:33;7.40;;;5.05;;
31734;SDS011;18313;48.518;9.124;2024-03-06T03:15:00;8.35;;;5.32;;
31734;SDS011;18313;48.518;9.124;2024-03-06T03:17:29;9.90;;;5.25;;
31734;SDS011;18313;48.518;9.124;2024-03-06T03:20:04;8.82;;;5.25;;
31734;SDS011;18313;48.518;9.124;2024-03-06T03:22:37;7.90;;;4.72;;
31734;SDS011;18313;48.518;9.124;2024-03-06T03:25:09;9.23;;;5.22;;
31734;SDS011;18313;48.518;9.124;2024-03-06T03:27:38;8.35;;;5.05;;
31734;SDS011;18313;48.518;9.124;2024-03-06T03:30:10;9.35;;;5.43;;
31734;SDS011;18313;48.518;9.124;2024-03-06T03:32:37;9.32;;;5.05;;
31734;SDS011;18313;48.518;9.124;2024-03-06T03:35:05;7.50;;;4.60;;
31734;SDS011;18313;48.518;9.124;2024-03-06T03:37:33;12.40;;;4.82;;
31734;SDS011;18313;48.518;9.124;2024-03-06T03:40:01;8.48;;;4.90;;
31734;SDS011;18313;48.518;9.124;2024-03-06T03:42:29;7.45;;;5.10;;
31734;SDS011;18313;48.518;9.124;2024-03-06T03:44:56;8.63;;;5.45;;
31734;SDS011;18313;48.518;9.124;2024-03-06T03:47:24;9.38;;;5.47;;
31734;SDS011;18313;48.518;9.124;2024-03-06T03:49:51;9.32;;;5.57;;
31734;SDS011;18313;48.518;9.124;2024-03-06T03:52:35;8.02;;;4.60;;
31734;SDS011;18313;48.518;9.124;2024-03-06T03:55:02;7.55;;;5.22;;
31734;SDS011;18313;48.518;9.124;2024-03-06T03:57:30;9.60;;;5.55;;
31734;SDS011;18313;48.518;9.124;2024-03-06T03:59:57;7.50;;;5.43;;
31734;SDS011;18313;48.518;9.124;2024-03-06T04:02:24;9.73;;;5.03;;
31734;SDS011;18313;48.518;9.124;2024-03-06T04:04:52;8.98;;;5.60;;
31734;SDS011;18313;48.518;9.124;2024-03-06T04:07:19;6.55;;;4.82;;
31734;SDS011;18313;48.518;9.124;2024-03-06T04:09:46;8.45;;;5.20;;
31734;SDS011;18313;48.518;9.124;2024-03-06T04:12:14;7.88;;;5.65;;
31734;SDS011;18313;48.518;9.124;2024-03-06T04:14:41;8.07;;;5.40;;
31734;SDS011;18313;48.518;9.124;2024-03-06T04:17:10;8.77;;;5.47;;
31734;SDS011;18313;48.518;9.124;2024-03-06T04:19:37;8.15;;;4.75;;
31734;SDS011;18313;48.518;9.124;2024-03-06T04:22:05;7.63;;;5.10;;
31734;SDS011;18313;48.518;9.124;2024-03-06T04:24:32;7.88;;;4.93;;
31734;SDS011;18313;48.518;9.124;2024-03-06T04:26:59;10.40;;;5.20;;
31734;SDS011;18313;48.518;9.124;2024-03-06T04:29:26;9.43;;;5.38;;
31734;SDS011;18313;48.518;9.124;2024-03-06T04:31:54;9.00;;;4.90;;
31734;SDS011;18313;48.518;9.124;2024-03-06T04:34:21;10.60;;;5.25;;
31734;SDS011;18313;48.518;9.124;2024-03-06T04:36:50;9.75;;;5.63;;
31734;SDS011;18313;48.518;9.124;2024-03-06T04:39:17;7.30;;;5.10;;
31734;SDS011;18313;48.518;9.124;2024-03-06T04:41:44;9.98;;;5.88;;
31734;SDS011;18313;48.518;9.124;2024-03-06T04:44:11;9.02;;;5.30;;
31734;SDS011;18313;48.518;9.124;2024-03-06T04:46:39;7.65;;;4.95;;
31734;SDS011;18313;48.518;9.124;2024-03-06T04:49:06;8.38;;;5.18;;
31734;SDS011;18313;48.518;9.124;2024-03-06T04:51:34;8.05;;;5.03;;
31734;SDS011;18313;48.518;9.124;2024-03-06T04:54:02;15.05;;;5.88;;
31734;SDS011;18313;48.518;9.124;2024-03-06T04:56:31;12.68;;;5.90;;
31734;SDS011;18313;48.518;9.124;2024-03-06T04:58:58;10.02;;;5.57;;
31734;SDS011;18313;48.518;9.124;2024-03-06T05:01:31;7.55;;;5.10;;
31734;SDS011;18313;48.518;9.124;2024-03-06T05:03:59;8.65;;;5.15;;
31734;SDS011;18313;48.518;9.124;2024-03-06T05:06:43;10.98;;;5.40;;
31734;SDS011;18313;48.518;9.124;2024-03-06T05:09:30;12.18;;;5.22;;
31734;SDS011;18313;48.518;9.124;2024-03-06T05:12:14;8.38;;;5.15;;
31734;SDS011;18313;48.518;9.124;2024-03-06T05:14:59;8.23;;;4.95;;
31734;SDS011;18313;48.518;9.124;2024-03-06T05:20:28;9.10;;;6.38;;
31734;SDS011;18313;48.518;9.124;2024-03-06T05:23:16;7.95;;;5.47;;
31734;SDS011;18313;48.518;9.124;2024-03-06T05:28:46;9.93;;;5.05;;
31734;SDS011;18313;48.518;9.124;2024-03-06T05:31:31;9.88;;;5.00;;
31734;SDS011;18313;48.518;9.124;2024-03-06T05:34:16;9.77;;;5.28;;
31734;SDS011;18313;48.518;9.124;2024-03-06T05:37:00;8.52;;;5.32;;
31734;SDS011;18313;48.518;9.124;2024-03-06T05:39:48;9.07;;;5.60;;
31734;SDS011;18313;48.518;9.124;2024-03-06T05:42:32;8.90;;;5.35;;
31734;SDS011;18313;48.518;9.124;2024-03-06T05:48:02;9.88;;;4.90;;
31734;SDS011;18313;48.518;9.124;2024-03-06T05:50:48;7.63;;;5.22;;
31734;SDS011;18313;48.518;9.124;2024-03-06T05:53:38;8.88;;;5.00;;
31734;SDS011;18313;48.518;9.124;2024-03-06T05:56:24;10.32;;;5.30;;
31734;SDS011;18313;48.518;9.124;2024-03-06T05:59:09;8.13;;;5.15;;
31734;SDS011;18313;48.518;9.124;2024-03-06T06:01:37;10.73;;;5.47;;
31734;SDS011;18313;48.518;9.124;2024-03-06T06:04:05;8.00;;;5.05;;
31734;SDS011;18313;48.518;9.124;2024-03-06T06:06:36;9.13;;;5.50;;
31734;SDS011;18313;48.518;9.124;2024-03-06T06:09:06;11.68;;;5.63;;
31734;SDS011;18313;48.518;9.124;2024-03-06T06:11:34;7.40;;;5.00;;
31734;SDS011;18313;48.518;9.124;2024-03-06T06:14:01;8.95;;;5.40;;
31734;SDS011;18313;48.518;9.124;2024-03-06T06:16:36;7.38;;;5.07;;
31734;SDS011;18313;48.518;9.124;2024-03-06T06:19:07;8.20;;;5.18;;
31734;SDS011;18313;48.518;9.124;2024-03-06T06:21:34;8.65;;;4.90;;
31734;SDS011;18313;48.518;9.124;2024-03-06T06:24:03;7.22;;;4.57;;
31734;SDS011;18313;48.518;9.124;2024-03-06T06:26:33;8.07;;;4.70;;
31734;SDS011;18313;48.518;9.124;2024-03-06T06:29:01;8.77;;;4.80;;
31734;SDS011;18313;48.518;9.124;2024-03-06T06:31:29;8.73;;;4.90;;
31734;SDS011;18313;48.518;9.124;2024-03-06T06:33:57;8.13;;;5.07;;
31734;SDS011;18313;48.518;9.124;2024-03-06T06:36:24;9.05;;;4.93;;
31734;SDS011;18313;48.518;9.124;2024-03-06T06:38:52;7.70;;;4.82;;
31734;SDS011;18313;48.518;9.124;2024-03-06T06:41:23;10.73;;;4.70;;
31734;SDS011;18313;48.518;9.124;2024-03-06T06:43:50;7.95;;;5.38;;
31734;SDS011;18313;48.518;9.124;2024-03-06T06:46:19;9.50;;;5.47;;
31734;SDS011;18313;48.518;9.124;2024-03-06T06:48:48;7.93;;;5.47;;
31734;SDS011;18313;48.518;9.124;2024-03-06T06:51:16;7.88;;;5.32;;
31734;SDS011;18313;48.518;9.124;2024-03-06T06:53:43;7.43;;;5.18;;
31734;SDS011;18313;48.518;9.124;2024-03-06T06:56:14;8.65;;;5.38;;
31734;SDS011;18313;48.518;9.124;2024-03-06T06:58:43;8.48;;;5.25;;
31734;SDS011;18313;48.518;9.124;2024-03-06T07:01:14;7.63;;;5.43;;
31734;SDS011;18313;48.518;9.124;2024-03-06T07:03:43;8.52;;;5.15;;
31734;SDS011;18313;48.518;9.124;2024-03-06T07:06:10;9.63;;;5.70;;
31734;SDS011;18313;48.518;9.124;2024-03-06T07:08:39;8.95;;;5.72;;
31734;SDS011;18313;48.518;9.124;2024-03-06T07:11:07;8.93;;;6.00;;
31734;SDS011;18313;48.518;9.124;2024-03-06T07:13:37;12.07;;;6.30;;
31734;SDS011;18313;48.518;9.124;2024-03-06T07:16:05;10.95;;;6.13;;
31734;SDS011;18313;48.518;9.124;2024-03-06T07:18:36;9.88;;;5.82;;
31734;SDS011;18313;48.518;9.124;2024-03-06T07:21:04;8.90;;;5.25;;
31734;SDS011;18313;48.518;9.124;2024-03-06T07:23:32;8.10;;;5.22;;
31734;SDS011;18313;48.518;9.124;2024-03-06T07:26:00;8.55;;;5.10;;
31734;SDS011;18313;48.518;9.124;2024-03-06T07:28:29;8.95;;;5.55;;
31734;SDS011;18313;48.518;9.124;2024-03-06T07:30:56;7.78;;;5.38;;
31734;SDS011;18313;48.518;9.124;2024-03-06T07:33:24;7.88;;;5.60;;
31734;SDS011;18313;48.518;9.124;2024-03-06T07:35:51;10.35;;;5.90;;
31734;SDS011;18313;48.518;9.124;2024-03-06T07:38:20;10.13;;;6.40;;
31734;SDS011;18313;48.518;9.124;2024-03-06T07:40:48;11.88;;;6.30;;
31734;SDS011;18313;48.518;9.124;2024-03-06T07:43:15;11.20;;;6.57;;
31734;SDS011;18313;48.518;9.124;2024-03-06T07:45:43;11.07;;;6.30;;
31734;SDS011;18313;48.518;9.124;2024-03-06T07:48:11;11.70;;;6.53;;
31734;SDS011;18313;48.518;9.124;2024-03-06T07:50:41;10.20;;;5.55;;
31734;SDS011;18313;48.518;9.124;2024-03-06T07:53:10;11.13;;;6.38;;
31734;SDS011;18313;48.518;9.124;2024-03-06T07:55:37;10.82;;;6.38;;
31734;SDS011;18313;48.518;9.124;2024-03-06T07:58:07;8.13;;;5.60;;
31734;SDS011;18313;48.518;9.124;2024-03-06T08:00:37;8.48;;;5.63;;
31734;SDS011;18313;48.518;9.124;2024-03-06T08:03:05;8.82;;;5.70;;
31734;SDS011;18313;48.518;9.124;2024-03-06T08:05:32;13.57;;;5.72;;
31734;SDS011;18313;48.518;9.124;2024-03-06T08:08:01;9.18;;;5.80;;
31734;SDS011;18313;48.518;9.124;2024-03-06T08:10:30;10.98;;;5.88;;
31734;SDS011;18313;48.518;9.124;2024-03-06T08:12:57;10.93;;;6.68;;
31734;SDS011;18313;48.518;9.124;2024-03-06T08:15:25;10.85;;;6.57;;
31734;SDS011;18313;48.518;9.124;2024-03-06T08:17:53;12.18;;;6.00;;
31734;SDS011;18313;48.518;9.124;2024-03-06T08:20:20;11.43;;;5.82;;
31734;SDS011;18313;48.518;9.124;2024-03-06T08:22:48;9.95;;;6.25;;
31734;SDS011;18313;48.518;9.124;2024-03-06T08:25:16;9.35;;;5.95;;
31734;SDS011;18313;48.518;9.124;2024-03-06T08:27:43;8.55;;;6.10;;
31734;SDS011;18313;48.518;9.124;2024-03-06T08:30:11;10.95;;;6.07;;
31734;SDS011;18313;48.518;9.124;2024-03-06T08:32:39;11.30;;;6.55;;
31734;SDS011;18313;48.518;9.124;2024-03-06T08:35:13;16.27;;;8.17;;
31734;SDS011;18313;48.518;9.124;2024-03-06T08:37:47;13.40;;;7.35;;
31734;SDS011;18313;48.518;9.124;2024-03-06T08:40:14;11.48;;;7.05;;
31734;SDS011;18313;48.518;9.124;2024-03-06T08:42:42;11.52;;;7.28;;
31734;SDS011;18313;48.518;9.124;2024-03-06T08:45:10;11.73;;;7.13;;
31734;SDS011;18313;48.518;9.124;2024-03-06T08:47:38;12.43;;;6.72;;
31734;SDS011;18313;48.518;9.124;2024-03-06T08:50:06;11.80;;;7.63;;
31734;SDS011;18313;48.518;9.124;2024-03-06T08:52:37;12.43;;;7.35;;
31734;SDS011;18313;48.518;9.124;2024-03-06T08:55:05;11.55;;;7.03;;
31734;SDS011;18313;48.518;9.124;2024-03-06T08:57:37;10.90;;;7.20;;
31734;SDS011;18313;48.518;9.124;2024-03-06T09:00:06;11.75;;;6.63;;
31734;SDS011;18313;48.518;9.124;2024-03-06T09:02:38;10.93;;;6.60;;
31734;SDS011;18313;48.518;9.124;2024-03-06T09:05:09;11.15;;;6.43;;
31734;SDS011;18313;48.518;9.124;2024-03-06T09:07:39;9.27;;;5.72;;
31734;SDS011;18313;48.518;9.124;2024-03-06T09:10:09;8.93;;;5.40;;
31734;SDS011;18313;48.518;9.124;2024-03-06T09:12:37;10.02;;;5.20;;
31734;SDS011;18313;48.518;9.124;2024-03-06T09:15:05;8.50;;;5.03;;
31734;SDS011;18313;48.518;9.124;2024-03-06T09:17:37;9.10;;;5.30;;
31734;SDS011;18313;48.518;9.124;2024-03-06T09:20:05;9.05;;;5.55;;
31734;SDS011;18313;48.518;9.124;2024-03-06T09:22:41;12.32;;;6.15;;
31734;SDS011;18313;48.518;9.124;2024-03-06T09:25:09;12.10;;;7.25;;
31734;SDS011;18313;48.518;9.124;2024-03-06T09:27:41;9.90;;;6.55;;
31734;SDS011;18313;48.518;9.124;2024-03-06T09:30:08;17.73;;;10.55;;
31734;SDS011;18313;48.518;9.124;2024-03-06T09:32:37;22.20;;;13.07;;
31734;SDS011;18313;48.518;9.124;2024-03-06T09:35:06;21.92;;;11.80;;
31734;SDS011;18313;48.518;9.124;2024-03-06T09:37:33;10.43;;;5.90;;
31734;SDS011;18313;48.518;9.124;2024-03-06T09:40:01;9.52;;;5.65;;
31734;SDS011;18313;48.518;9.124;2024-03-06T09:42:29;8.73;;;5.55;;
31734;SDS011;18313;48.518;9.124;2024-03-06T09:44:57;7.22;;;4.57;;
31734;SDS011;18313;48.518;9.124;2024-03-06T09:47:24;13.15;;;6.72;;
31734;SDS011;18313;48.518;9.124;2024-03-06T09:49:54;9.82;;;5.45;;
31734;SDS011;18313;48.518;9.124;2024-03-06T09:52:23;8.18;;;5.28;;
31734;SDS011;18313;48.518;9.124;2024-03-06T09:54:53;9.60;;;5.13;;
31734;SDS011;18313;48.518;9.124;2024-03-06T09:57:22;8.82;;;5.18;;
31734;SDS011;18313;48.518;9.124;2024-03-06T09:59:51;10.75;;;5.35;;
31734;SDS011;18313;48.518;9.124;2024-03-06T10:02:28;13.63;;;7.60;;
31734;SDS011;18313;48.518;9.124;2024-03-06T10:05:02;14.25;;;6.50;;
31734;SDS011;18313;48.518;9.124;2024-03-06T10:07:30;11.98;;;6.78;;
31734;SDS011;18313;48.518;9.124;2024-03-06T10:09:58;9.73;;;6.28;;
31734;SDS011;18313;48.518;9.124;2024-03-06T10:12:27;13.27;;;5.95;;
31734;SDS011;18313;48.518;9.124;2024-03-06T10:14:56;17.58;;;7.60;;
31734;SDS011;18313;48.518;9.124;2024-03-06T10:17:24;16.38;;;8.27;;
31734;SDS011;18313;48.518;9.124;2024-03-06T10:19:54;17.38;;;9.50;;
31734;SDS011;18313;48.518;9.124;2024-03-06T10:22:25;15.60;;;8.18;;
31734;SDS011;18313;48.518;9.124;2024-03-06T10:24:55;15.10;;;5.95;;
31734;SDS011;18313;48.518;9.124;2024-03-06T10:27:24;12.25;;;5.68;;
31734;SDS011;18313;48.518;9.124;2024-03-06T10:30:02;9.57;;;5.40;;
31734;SDS011;18313;48.518;9.124;2024-03-06T10:32:32;10.07;;;5.82;;
31734;SDS011;18313;48.518;9.124;2024-03-06T10:35:00;10.18;;;5.93;;
31734;SDS011;18313;48.518;9.124;2024-03-06T10:37:28;9.55;;;5.88;;
31734;SDS011;18313;48.518;9.124;2024-03-06T10:39:56;13.52;;;6.88;;
31734;SDS011;18313;48.518;9.124;2024-03-06T10:42:33;18.85;;;8.23;;
31734;SDS011;18313;48.518;9.124;2024-03-06T10:45:03;8.85;;;5.50;;
31734;SDS011;18313;48.518;9.124;2024-03-06T10:47:33;11.20;;;6.97;;
31734;SDS011;18313;48.518;9.124;2024-03-06T10:50:00;11.10;;;6.40;;
31734;SDS011;18313;48.518;9.124;2024-03-06T10:52:31;10.60;;;6.53;;
31734;SDS011;18313;48.518;9.124;2024-03-06T10:55:03;11.93;;;8.10;;
31734;SDS011;18313;48.518;9.124;2024-03-06T10:57:31;16.30;;;9.00;;
31734;SDS011;18313;48.518;9.124;2024-03-06T10:59:59;12.40;;;7.35;;
31734;SDS011;18313;48.518;9.124;2024-03-06T11:02:31;11.43;;;7.75;;
31734;SDS011;18313;48.518;9.124;2024-03-06T11:05:02;11.00;;;7.03;;
31734;SDS011;18313;48.518;9.124;2024-03-06T11:07:33;16.48;;;10.40;;
31734;SDS011;18313;48.518;9.124;2024-03-06T11:10:01;21.83;;;10.20;;
31734;SDS011;18313;48.518;9.124;2024-03-06T11:12:35;17.60;;;10.98;;
31734;SDS011;18313;48.518;9.124;2024-03-06T11:15:09;12.57;;;8.68;;
31734;SDS011;18313;48.518;9.124;2024-03-06T11:17:43;13.75;;;8.75;;
31734;SDS011;18313;48.518;9.124;2024-03-06T11:20:17;15.30;;;9.33;;
31734;SDS011;18313;48.518;9.124;2024-03-06T11:28:24;11.48;;;7.65;;
31734;SDS011;18313;48.518;9.124;2024-03-06T11:30:57;19.58;;;9.73;;
31734;SDS011;18313;48.518;9.124;2024-03-06T11:38:53;13.70;;;9.20;;
31734;SDS011;18313;48.518;9.124;2024-03-06T11:44:20;13.38;;;8.85;;
31734;SDS011;18313;48.518;9.124;2024-03-06T11:46:57;14.35;;;10.38;;
31734;SDS011;18313;48.518;9.124;2024-03-06T11:49:27;15.55;;;10.23;;
31734;SDS011;18313;48.518;9.124;2024-03-06T11:51:59;15.20;;;8.93;;
31734;SDS011;18313;48.518;9.124;2024-03-06T11:54:31;13.15;;;8.90;;
31734;SDS011;18313;48.518;9.124;2024-03-06T11:57:00;16.00;;;10.27;;
31734;SDS011;18313;48.518;9.124;2024-03-06T11:59:30;18.60;;;12.13;;
31734;SDS011;18313;48.518;9.124;2024-03-06T12:02:02;16.27;;;9.90;;
31734;SDS011;18313;48.518;9.124;2024-03-06T12:04:31;13.98;;;9.00;;
31734;SDS011;18313;48.518;9.124;2024-03-06T12:07:02;27.80;;;16.10;;
31734;SDS011;18313;48.518;9.124;2024-03-06T12:09:33;16.73;;;11.10;;
31734;SDS011;18313;48.518;9.124;2024-03-06T12:12:07;20.10;;;12.48;;
31734;SDS011;18313;48.518;9.124;2024-03-06T12:14:37;19.55;;;12.30;;
31734;SDS011;18313;48.518;9.124;2024-03-06T12:17:10;19.23;;;11.98;;
31734;SDS011;18313;48.518;9.124;2024-03-06T12:19:45;16.38;;;11.90;;
31734;SDS011;18313;48.518;9.124;2024-03-06T12:22:12;20.48;;;14.23;;
31734;SDS011;18313;48.518;9.124;2024-03-06T12:24:42;18.05;;;11.90;;
31734;SDS011;18313;48.518;9.124;2024-03-06T12:27:10;15.90;;;11.27;;
31734;SDS011;18313;48.518;9.124;2024-03-06T12:29:40;14.65;;;10.35;;
31734;SDS011;18313;48.518;9.124;2024-03-06T12:32:16;17.33;;;11.55;;
31734;SDS011;18313;48.518;9.124;2024-03-06T12:34:56;15.70;;;10.50;;
31734;SDS011;18313;48.518;9.124;2024-03-06T12:37:31;14.63;;;10.30;;
31734;SDS011;18313;48.518;9.124;2024-03-06T12:40:03;15.32;;;10.68;;
31734;SDS011;18313;48.518;9.124;2024-03-06T12:42:32;16.30;;;11.52;;
31734;SDS011;18313;48.518;9.124;2024-03-06T12:45:00;18.05;;;13.07;;
31734;SDS011;18313;48.518;9.124;2024-03-06T12:47:30;19.25;;;11.65;;
31734;SDS011;18313;48.518;9.124;2024-03-06T12:50:00;16.77;;;11.88;;
31734;SDS011;18313;48.518;9.124;2024-03-06T12:52:28;13.43;;;10.45;;
31734;SDS011;18313;48.518;9.124;2024-03-06T12:54:57;14.73;;;10.45;;
31734;SDS011;18313;48.518;9.124;2024-03-06T12:57:27;14.20;;;10.65;;
31734;SDS011;18313;48.518;9.124;2024-03-06T12:59:54;15.90;;;10.10;;
31734;SDS011;18313;48.518;9.124;2024-03-06T13:02:22;16.02;;;10.90;;
31734;SDS011;18313;48.518;9.124;2024-03-06T13:04:53;16.48;;;11.43;;
31734;SDS011;18313;48.518;9.124;2024-03-06T13:07:21;16.23;;;10.73;;
31734;SDS011;18313;48.518;9.124;2024-03-06T13:09:48;18.08;;;12.80;;
31734;SDS011;18313;48.518;9.124;2024-03-06T13:12:17;17.95;;;12.68;;
31734;SDS011;18313;48.518;9.124;2024-03-06T13:14:45;18.05;;;12.35;;
31734;SDS011;18313;48.518;9.124;2024-03-06T13:17:13;17.50;;;12.25;;
31734;SDS011;18313;48.518;9.124;2024-03-06T13:19:41;19.42;;;14.05;;
31734;SDS011;18313;48.518;9.124;2024-03-06T13:22:08;17.30;;;12.82;;
31734;SDS011;18313;48.518;9.124;2024-03-06T13:24:36;19.67;;;14.15;;
31734;SDS011;18313;48.518;9.124;2024-03-06T13:27:10;20.35;;;15.27;;
31734;SDS011;18313;48.518;9.124;2024-03-06T13:29:38;22.63;;;14.85;;
31734;SDS011;18313;48.518;9.124;2024-03-06T13:32:06;21.23;;;15.25;;
31734;SDS011;18313;48.518;9.124;2024-03-06T13:34:34;17.67;;;13.30;;
31734;SDS011;18313;48.518;9.124;2024-03-06T13:37:02;22.15;;;14.73;;
31734;SDS011;18313;48.518;9.124;2024-03-06T13:39:29;18.80;;;12.70;;
31734;SDS011;18313;48.518;9.124;2024-03-06T13:41:58;21.10;;;15.52;;
31734;SDS011;18313;48.518;9.124;2024-03-06T13:44:26;19.38;;;13.73;;
31734;SDS011;18313;48.518;9.124;2024-03-06T13:46:54;18.63;;;13.27;;
31734;SDS011;18313;48.518;9.124;2024-03-06T13:49:37;19.67;;;14.52;;
31734;SDS011;18313;48.518;9.124;2024-03-06T13:52:08;22.35;;;16.58;;
31734;SDS011;18313;48.518;9.124;2024-03-06T13:54:37;20.83;;;13.95;;
31734;SDS011;18313;48.518;9.124;2024-03-06T13:57:11;21.10;;;15.10;;
31734;SDS011;18313;48.518;9.124;2024-03-06T13:59:38;18.10;;;13.65;;
31734;SDS011;18313;48.518;9.124;2024-03-06T14:02:07;18.63;;;13.38;;
31734;SDS011;18313;48.518;9.124;2024-03-06T14:04:34;21.98;;;14.77;;
31734;SDS011;18313;48.518;9.124;2024-03-06T14:07:02;21.83;;;15.60;;
31734;SDS011;18313;48.518;9.124;2024-03-06T14:09:29;25.25;;;18.48;;
31734;SDS011;18313;48.518;9.124;2024-03-06T14:11:57;26.52;;;19.48;;
31734;SDS011;18313;48.518;9.124;2024-03-06T14:14:25;20.52;;;15.07;;
31734;SDS011;18313;48.518;9.124;2024-03-06T14:16:52;24.73;;;15.73;;
31734;SDS011;18313;48.518;9.124;2024-03-06T14:19:20;17.60;;;13.85;;
31734;SDS011;18313;48.518;9.124;2024-03-06T14:21:48;20.35;;;14.10;;
31734;SDS011;18313;48.518;9.124;2024-03-06T14:24:16;21.67;;;13.95;;
31734;SDS011;18313;48.518;9.124;2024-03-06T14:26:47;23.83;;;17.00;;
31734;SDS011;18313;48.518;9.124;2024-03-06T14:29:15;24.40;;;16.15;;
31734;SDS011;18313;48.518;9.124;2024-03-06T14:31:48;20.33;;;14.23;;
31734;SDS011;18313;48.518;9.124;2024-03-06T14:34:17;19.52;;;14.40;;
31734;SDS011;18313;48.518;9.124;2024-03-06T14:36:48;22.25;;;15.07;;
31734;SDS011;18313;48.518;9.124;2024-03-06T14:39:15;22.55;;;15.63;;
31734;SDS011;18313;48.518;9.124;2024-03-06T14:41:46;21.85;;;14.77;;
31734;SDS011;18313;48.518;9.124;2024-03-06T14:44:14;22.38;;;15.63;;
31734;SDS011;18313;48.518;9.124;2024-03-06T14:46:42;23.40;;;16.42;;
31734;SDS011;18313;48.518;9.124;2024-03-06T14:49:11;25.73;;;16.15;;
31734;SDS011;18313;48.518;9.124;2024-03-06T14:51:38;21.88;;;16.00;;
31734;SDS011;18313;48.518;9.124;2024-03-06T14:54:06;23.10;;;17.20;;
31734;SDS011;18313;48.518;9.124;2024-03-06T14:56:34;25.17;;;16.52;;
31734;SDS011;18313;48.518;9.124;2024-03-06T14:59:02;24.58;;;16.58;;
31734;SDS011;18313;48.518;9.124;2024-03-06T15:01:29;24.02;;;16.13;;
31734;SDS011;18313;48.518;9.124;2024-03-06T15:03:57;22.75;;;16.80;;
31734;SDS011;18313;48.518;9.124;2024-03-06T15:06:26;22.52;;;16.45;;
31734;SDS011;18313;48.518;9.124;2024-03-06T15:08:53;22.67;;;15.73;;
31734;SDS011;18313;48.518;9.124;2024-03-06T15:11:22;21.65;;;15.75;;
31734;SDS011;18313;48.518;9.124;2024-03-06T15:13:50;21.10;;;15.00;;